createdAt,value
2023-03-16T00:01:52.373Z,100.00
2023-03-16T00:04:21.512Z,100.00
2023-03-16T00:06:50.217Z,100.00
2023-03-16T00:09:20.515Z,100.00
2023-03-16T00:11:49.258Z,100.00
2023-03-16T00:14:17.974Z,100.00
2023-03-16T00:16:47.016Z,100.00
2023-03-16T00:19:15.846Z,100.00
2023-03-16T00:21:44.540Z,100.00
2023-03-16T00:24:18.141Z,100.00
2023-03-16T00:26:48.486Z,100.00
2023-03-16T00:29:17.264Z,100.00
2023-03-16T00:31:46.734Z,100.00
2023-03-16T00:34:16.491Z,100.00
2023-03-16T00:36:45.206Z,100.00
2023-03-16T00:39:14.901Z,100.00
2023-03-16T00:41:44.184Z,100.00
2023-03-16T00:44:14.265Z,100.00
2023-03-16T00:46:43.052Z,100.00
2023-03-16T00:49:12.162Z,100.00
2023-03-16T00:51:46.200Z,100.00
2023-03-16T00:54:15.041Z,100.00
2023-03-16T00:56:44.178Z,100.00
2023-03-16T00:59:15.593Z,100.00
2023-03-16T01:01:46.348Z,100.00
2023-03-16T01:04:16.137Z,100.00
2023-03-16T01:06:45.007Z,100.00
2023-03-16T01:09:15.205Z,100.00
2023-03-16T01:11:45.285Z,100.00
2023-03-16T01:14:15.420Z,100.00
2023-03-16T01:16:45.937Z,100.00
2023-03-16T01:19:15.835Z,100.00
2023-03-16T01:21:44.786Z,100.00
2023-03-16T01:24:14.044Z,100.00
2023-03-16T01:26:43.119Z,100.00
2023-03-16T01:29:12.480Z,100.00
2023-03-16T01:31:43.757Z,100.00
2023-03-16T01:34:16.703Z,100.00
2023-03-16T01:36:47.818Z,100.00
2023-03-16T01:39:18.035Z,100.00
2023-03-16T01:41:49.816Z,100.00
2023-03-16T01:44:24.419Z,100.00
2023-03-16T01:46:54.749Z,100.00
2023-03-16T01:49:27.980Z,100.00
2023-03-16T01:52:00.984Z,100.00
2023-03-16T01:54:34.971Z,100.00
2023-03-16T01:57:08.919Z,100.00
2023-03-16T01:59:41.437Z,100.00
2023-03-16T02:02:14.736Z,100.00
2023-03-16T02:04:52.133Z,100.00
2023-03-16T02:07:27.438Z,100.00
2023-03-16T02:10:01.002Z,100.00
2023-03-16T02:12:30.931Z,100.00
2023-03-16T02:15:02.017Z,100.00
2023-03-16T02:17:35.191Z,100.00
2023-03-16T02:20:26.969Z,100.00
2023-03-16T02:22:56.542Z,100.00
2023-03-16T02:25:29.480Z,100.00
2023-03-16T02:28:05.585Z,100.00
2023-03-16T02:30:37.701Z,100.00
2023-03-16T02:33:07.645Z,100.00
2023-03-16T02:35:36.792Z,100.00
2023-03-16T02:38:05.904Z,100.00
2023-03-16T02:40:43.901Z,100.00
2023-03-16T02:43:20.082Z,100.00
2023-03-16T02:46:05.292Z,100.00
2023-03-16T02:48:42.922Z,100.00
2023-03-16T02:51:12.647Z,100.00
2023-03-16T02:53:41.424Z,100.00
2023-03-16T02:56:10.965Z,100.00
2023-03-16T02:58:39.807Z,100.00
2023-03-16T03:01:15.213Z,100.00
2023-03-16T03:03:44.108Z,100.00
2023-03-16T03:06:12.884Z,100.00
2023-03-16T03:08:42.646Z,100.00
2023-03-16T03:11:11.693Z,100.00
2023-03-16T03:13:44.517Z,100.00
2023-03-16T03:16:19.043Z,100.00
2023-03-16T03:18:47.937Z,100.00
2023-03-16T03:21:16.807Z,100.00
2023-03-16T03:23:46.601Z,100.00
2023-03-16T03:26:15.909Z,100.00
2023-03-16T03:28:46.794Z,100.00
2023-03-16T03:31:18.897Z,100.00
2023-03-16T03:33:47.580Z,100.00
2023-03-16T03:36:16.893Z,100.00
2023-03-16T03:38:49.614Z,100.00
2023-03-16T03:41:22.422Z,100.00
2023-03-16T03:43:51.838Z,100.00
2023-03-16T03:46:22.791Z,100.00
2023-03-16T03:48:52.498Z,100.00
2023-03-16T03:51:21.766Z,100.00
2023-03-16T03:54:04.646Z,100.00
2023-03-16T03:57:08.896Z,100.00
2023-03-16T03:59:42.676Z,100.00
2023-03-16T04:02:25.027Z,100.00
2023-03-16T04:04:56.003Z,100.00
2023-03-16T04:07:24.838Z,100.00
2023-03-16T04:09:57.930Z,100.00
2023-03-16T04:12:40.038Z,100.00
2023-03-16T04:15:12.506Z,100.00
2023-03-16T04:18:12.900Z,100.00
2023-03-16T04:20:42.809Z,100.00
2023-03-16T04:23:16.677Z,100.00
2023-03-16T04:25:47.020Z,100.00
2023-03-16T04:28:18.336Z,100.00
2023-03-16T04:30:51.609Z,100.00
2023-03-16T04:33:27.641Z,100.00
2023-03-16T04:35:56.470Z,100.00
2023-03-16T04:38:26.128Z,100.00
2023-03-16T04:41:01.192Z,100.00
2023-03-16T04:43:35.441Z,100.00
2023-03-16T04:46:11.912Z,100.00
2023-03-16T04:48:42.199Z,100.00
2023-03-16T04:51:12.001Z,100.00
2023-03-16T04:53:45.978Z,100.00
2023-03-16T04:56:23.924Z,100.00
2023-03-16T04:58:58.410Z,100.00
2023-03-16T05:01:31.014Z,100.00
2023-03-16T05:04:04.267Z,100.00
2023-03-16T05:06:35.655Z,100.00
2023-03-16T05:09:06.127Z,100.00
2023-03-16T05:11:37.588Z,100.00
2023-03-16T05:14:09.954Z,100.00
2023-03-16T05:16:52.261Z,100.00
2023-03-16T05:19:22.973Z,100.00
2023-03-16T05:21:51.797Z,100.00
2023-03-16T05:24:20.658Z,100.00
2023-03-16T05:26:49.497Z,100.00
2023-03-16T05:29:20.524Z,100.00
2023-03-16T05:31:49.305Z,100.00
2023-03-16T05:34:22.214Z,100.00
2023-03-16T05:36:51.930Z,100.00
2023-03-16T05:39:24.375Z,100.00
2023-03-16T05:41:55.207Z,100.00
2023-03-16T05:44:28.574Z,100.00
2023-03-16T05:47:20.107Z,100.00
2023-03-16T05:49:55.811Z,100.00
2023-03-16T05:52:38.349Z,100.00
2023-03-16T05:55:15.699Z,100.00
2023-03-16T05:57:46.346Z,100.00
2023-03-16T06:00:18.229Z,100.00
2023-03-16T06:02:54.765Z,100.00
2023-03-16T06:05:28.651Z,100.00
2023-03-16T06:07:57.513Z,100.00
2023-03-16T06:10:27.999Z,100.00
2023-03-16T06:12:58.993Z,100.00
2023-03-16T06:15:30.598Z,100.00
2023-03-16T06:18:01.399Z,100.00
2023-03-16T06:20:32.141Z,100.00
2023-03-16T06:23:01.072Z,100.00
2023-03-16T06:25:29.600Z,100.00
2023-03-16T06:27:58.119Z,100.00
2023-03-16T06:30:28.069Z,100.00
2023-03-16T06:32:57.120Z,100.00
2023-03-16T06:35:26.080Z,100.00
2023-03-16T06:38:15.808Z,100.00
2023-03-16T06:41:10.825Z,100.00
2023-03-16T06:43:39.609Z,100.00
2023-03-16T06:46:09.027Z,100.00
2023-03-16T06:48:38.004Z,100.00
2023-03-16T06:51:07.730Z,100.00
2023-03-16T06:53:39.544Z,100.00
2023-03-16T06:56:08.926Z,100.00
2023-03-16T06:58:42.232Z,100.00
2023-03-16T07:01:12.631Z,100.00
2023-03-16T07:03:42.025Z,100.00
2023-03-16T07:06:20.877Z,100.00
2023-03-16T07:08:51.680Z,100.00
2023-03-16T07:11:21.739Z,100.00
2023-03-16T07:13:50.567Z,100.00
2023-03-16T07:16:22.031Z,100.00
2023-03-16T07:18:53.504Z,100.00
2023-03-16T07:21:22.813Z,100.00
2023-03-16T07:23:53.878Z,100.00
2023-03-16T07:26:26.903Z,100.00
2023-03-16T07:28:59.950Z,100.00
2023-03-16T07:31:28.909Z,100.00
2023-03-16T07:34:00.328Z,100.00
2023-03-16T07:36:39.130Z,100.00
2023-03-16T07:39:13.954Z,100.00
2023-03-16T07:41:43.934Z,100.00
2023-03-16T07:44:17.798Z,100.00
2023-03-16T07:46:50.200Z,100.00
2023-03-16T07:49:19.344Z,100.00
2023-03-16T07:51:49.328Z,100.00
2023-03-16T07:54:24.295Z,100.00
2023-03-16T07:56:53.668Z,100.00
2023-03-16T07:59:38.536Z,100.00
2023-03-16T08:02:08.067Z,100.00
2023-03-16T08:04:37.218Z,100.00
2023-03-16T08:07:06.338Z,100.00
2023-03-16T08:09:59.400Z,100.00
2023-03-16T08:12:39.674Z,100.00
2023-03-16T08:15:10.178Z,100.00
2023-03-16T08:17:41.788Z,100.00
2023-03-16T08:20:15.665Z,100.00
2023-03-16T08:22:47.425Z,100.00
2023-03-16T08:25:20.417Z,100.00
2023-03-16T08:27:59.011Z,100.00
2023-03-16T08:30:28.104Z,100.00
2023-03-16T08:33:13.871Z,100.00
2023-03-16T08:35:45.080Z,100.00
2023-03-16T08:38:14.628Z,100.00
2023-03-16T08:40:48.551Z,100.00
2023-03-16T08:43:19.242Z,100.00
2023-03-16T08:45:49.518Z,100.00
2023-03-16T08:48:20.188Z,100.00
2023-03-16T08:50:52.018Z,100.00
2023-03-16T08:53:21.036Z,100.00
2023-03-16T08:55:51.863Z,100.00
2023-03-16T08:58:20.731Z,100.00
2023-03-16T09:00:50.637Z,100.00
2023-03-16T09:03:20.050Z,100.00
2023-03-16T09:05:49.545Z,100.00
2023-03-16T09:08:18.380Z,100.00
2023-03-16T09:10:47.193Z,100.00
2023-03-16T09:13:17.386Z,100.00
2023-03-16T09:15:46.569Z,100.00
2023-03-16T09:18:15.133Z,100.00
2023-03-16T09:20:43.857Z,100.00
2023-03-16T09:23:14.041Z,95.60
2023-03-16T09:25:42.760Z,97.65
2023-03-16T09:28:11.457Z,96.62
2023-03-16T09:30:42.291Z,100.00
2023-03-16T09:33:11.013Z,100.00
2023-03-16T09:35:39.856Z,100.00
2023-03-16T09:38:08.556Z,99.53
2023-03-16T09:40:39.627Z,99.44
2023-03-16T09:43:44.358Z,91.67
2023-03-16T09:46:28.804Z,83.50
2023-03-16T09:48:59.123Z,81.07
2023-03-16T09:51:39.763Z,80.48
2023-03-16T09:54:24.041Z,77.00
2023-03-16T09:56:55.651Z,83.71
2023-03-16T09:59:25.963Z,82.65
2023-03-16T10:02:32.044Z,77.29
2023-03-16T10:05:09.769Z,75.84
2023-03-16T10:07:51.193Z,76.91
2023-03-16T10:10:45.159Z,72.45
2023-03-16T10:13:28.761Z,72.88
2023-03-16T10:16:03.472Z,70.94
2023-03-16T10:18:42.970Z,72.50
2023-03-16T10:21:15.353Z,71.47
2023-03-16T10:23:46.495Z,72.70
2023-03-16T10:26:22.141Z,69.77
2023-03-16T10:28:50.873Z,68.17
2023-03-16T10:31:24.494Z,68.62
2023-03-16T10:34:05.789Z,66.70
2023-03-16T10:36:40.510Z,70.48
2023-03-16T10:39:12.689Z,67.18
2023-03-16T10:41:45.284Z,59.24
2023-03-16T10:44:16.858Z,63.00
2023-03-16T10:46:49.375Z,59.54
2023-03-16T10:49:27.517Z,58.02
2023-03-16T10:51:59.475Z,58.93
2023-03-16T10:54:35.381Z,53.67
2023-03-16T10:57:16.839Z,54.19
2023-03-16T11:10:55.155Z,52.14
2023-03-16T11:13:26.518Z,49.27
2023-03-16T11:16:02.773Z,51.08
2023-03-16T11:18:36.847Z,44.11
2023-03-16T11:21:17.303Z,46.37
2023-03-16T11:23:53.826Z,48.32
2023-03-16T11:26:33.575Z,47.12
2023-03-16T11:29:09.769Z,45.49
2023-03-16T11:31:49.599Z,44.55
2023-03-16T11:34:29.609Z,44.45
2023-03-16T11:37:05.612Z,44.47
2023-03-16T11:39:50.125Z,41.81
2023-03-16T11:42:30.653Z,43.72
2023-03-16T11:45:16.906Z,43.84
2023-03-16T11:48:16.764Z,44.06
2023-03-16T11:51:00.030Z,43.33
2023-03-16T11:53:49.006Z,44.46
2023-03-16T11:56:27.587Z,42.81
2023-03-16T11:59:25.119Z,42.86
2023-03-16T12:02:06.279Z,43.47
2023-03-16T12:04:57.728Z,43.84
2023-03-16T12:07:48.980Z,43.04
2023-03-16T12:10:27.318Z,42.97
2023-03-16T12:13:17.268Z,43.26
2023-03-16T12:15:53.589Z,42.44
2023-03-16T12:18:31.059Z,38.22
2023-03-16T12:21:02.895Z,38.33
2023-03-16T12:23:40.481Z,37.96
2023-03-16T12:26:12.409Z,39.81
2023-03-16T12:28:43.941Z,38.08
2023-03-16T12:31:20.681Z,39.23
2023-03-16T12:34:13.199Z,39.44
2023-03-16T12:37:06.317Z,38.20
2023-03-16T12:40:06.231Z,39.73
2023-03-16T12:43:15.943Z,39.26
2023-03-16T12:45:53.627Z,40.47
2023-03-16T12:48:31.151Z,39.99
2023-03-16T12:51:02.911Z,41.11
2023-03-16T12:53:46.851Z,41.44
2023-03-16T12:56:19.620Z,39.83
2023-03-16T12:58:51.074Z,40.91
2023-03-16T13:01:28.291Z,41.31
2023-03-16T13:04:09.121Z,39.50
2023-03-16T13:06:38.567Z,37.66
2023-03-16T13:09:09.681Z,39.29
2023-03-16T13:11:50.369Z,38.80
2023-03-16T13:14:40.746Z,38.29
2023-03-16T13:17:27.274Z,38.91
2023-03-16T13:20:31.586Z,37.61
2023-03-16T13:23:23.927Z,38.03
2023-03-16T13:26:16.496Z,38.90
2023-03-16T13:28:51.423Z,39.01
2023-03-16T13:31:28.717Z,36.69
2023-03-16T13:34:00.358Z,35.94
2023-03-16T13:36:33.489Z,35.07
2023-03-16T13:39:15.143Z,36.99
2023-03-16T13:41:43.953Z,38.82
2023-03-16T13:44:17.103Z,38.90
2023-03-16T13:46:49.130Z,39.59
2023-03-16T13:49:18.067Z,39.52
2023-03-16T13:51:49.528Z,39.80
2023-03-16T13:54:26.344Z,40.55
2023-03-16T13:56:57.815Z,40.35
2023-03-16T13:59:27.084Z,40.13
2023-03-16T14:02:01.925Z,40.60
2023-03-16T14:04:34.419Z,40.42
2023-03-16T14:07:05.554Z,41.04
2023-03-16T14:09:36.871Z,41.40
2023-03-16T14:12:06.499Z,40.81
2023-03-16T14:14:41.579Z,41.46
2023-03-16T14:17:15.052Z,41.30
2023-03-16T14:19:47.491Z,40.10
2023-03-16T14:22:19.636Z,39.30
2023-03-16T14:24:54.627Z,39.07
2023-03-16T14:27:28.583Z,38.63
2023-03-16T14:30:02.850Z,39.00
2023-03-16T14:32:33.586Z,34.29
2023-03-16T14:35:15.135Z,36.43
2023-03-16T14:37:46.139Z,34.73
2023-03-16T14:40:30.779Z,35.99
2023-03-16T14:43:02.441Z,36.14
2023-03-16T14:45:34.468Z,36.60
2023-03-16T14:48:06.490Z,37.71
2023-03-16T14:50:35.958Z,38.16
2023-03-16T14:53:06.876Z,37.92
2023-03-16T14:55:36.433Z,38.32
2023-03-16T14:58:05.462Z,38.55
2023-03-16T15:00:50.191Z,37.69
2023-03-16T15:03:25.102Z,37.63
2023-03-16T15:05:54.609Z,38.19
2023-03-16T15:08:31.470Z,38.11
2023-03-16T15:11:04.921Z,38.04
2023-03-16T15:13:52.886Z,37.35
2023-03-16T15:16:23.090Z,38.12
2023-03-16T15:18:52.298Z,36.94
2023-03-16T15:21:26.962Z,35.64
2023-03-16T15:23:58.935Z,34.97
2023-03-16T15:26:30.811Z,35.32
2023-03-16T15:28:59.499Z,34.61
2023-03-16T15:31:28.399Z,35.00
2023-03-16T15:33:56.917Z,34.86
2023-03-16T15:36:25.664Z,35.84
2023-03-16T15:38:57.610Z,36.11
2023-03-16T15:41:32.333Z,36.40
2023-03-16T15:44:13.812Z,36.93
2023-03-16T15:46:42.628Z,37.27
2023-03-16T15:49:11.286Z,37.78
2023-03-16T15:51:40.232Z,38.01
2023-03-16T15:54:13.190Z,37.34
2023-03-16T15:56:53.893Z,38.74
2023-03-16T15:59:24.454Z,38.25
2023-03-16T16:01:53.709Z,37.73
2023-03-16T16:04:24.377Z,37.33
2023-03-16T16:06:55.215Z,37.92
2023-03-16T16:09:25.749Z,37.16
2023-03-16T16:11:54.674Z,37.11
2023-03-16T16:14:28.162Z,37.93
2023-03-16T16:16:56.759Z,37.66
2023-03-16T16:19:25.490Z,37.43
2023-03-16T16:21:54.139Z,37.35
2023-03-16T16:24:25.180Z,37.84
2023-03-16T16:26:55.811Z,38.10
2023-03-16T16:29:27.242Z,37.97
2023-03-16T16:31:56.321Z,38.09
2023-03-16T16:34:26.996Z,37.69
2023-03-16T16:36:56.429Z,38.41
2023-03-16T16:39:27.456Z,38.51
2023-03-16T16:41:57.958Z,38.29
2023-03-16T16:44:33.455Z,38.67
2023-03-16T16:47:03.837Z,38.98
2023-03-16T16:49:35.264Z,39.39
2023-03-16T16:52:04.415Z,39.71
2023-03-16T16:54:36.916Z,39.89
2023-03-16T16:57:06.878Z,40.41
2023-03-16T16:59:38.419Z,40.69
2023-03-16T17:02:30.835Z,40.83
2023-03-16T17:04:59.672Z,41.47
2023-03-16T17:07:28.474Z,42.00
2023-03-16T17:09:58.231Z,42.10
2023-03-16T17:12:28.768Z,42.55
2023-03-16T17:14:57.462Z,42.66
2023-03-16T17:17:27.376Z,43.01
2023-03-16T17:19:56.038Z,43.29
2023-03-16T17:22:28.319Z,43.24
2023-03-16T17:24:58.543Z,43.36
2023-03-16T17:27:30.565Z,43.69
2023-03-16T17:30:00.026Z,44.05
2023-03-16T17:32:28.816Z,44.00
2023-03-16T17:34:57.551Z,44.51
2023-03-16T17:37:26.424Z,44.39
2023-03-16T17:39:57.419Z,44.65
2023-03-16T17:42:27.778Z,44.80
2023-03-16T17:44:57.926Z,45.20
2023-03-16T17:47:29.285Z,45.39
2023-03-16T17:49:58.052Z,45.66
2023-03-16T17:52:30.143Z,45.64
2023-03-16T17:54:58.619Z,45.63
2023-03-16T17:57:31.957Z,46.01
2023-03-16T18:00:01.740Z,45.92
2023-03-16T18:02:53.840Z,46.10
2023-03-16T18:05:26.557Z,46.31
2023-03-16T18:07:56.456Z,46.41
2023-03-16T18:10:29.031Z,46.70
2023-03-16T18:13:04.445Z,46.63
2023-03-16T18:15:36.445Z,46.54
2023-03-16T18:18:07.894Z,46.57
2023-03-16T18:20:37.647Z,46.68
2023-03-16T18:23:18.737Z,46.88
2023-03-16T18:25:48.592Z,47.24
2023-03-16T18:28:19.834Z,47.26
2023-03-16T18:30:52.033Z,47.17
2023-03-16T18:33:27.879Z,47.24
2023-03-16T18:36:01.139Z,47.66
2023-03-16T18:38:33.093Z,47.78
2023-03-16T18:41:04.594Z,47.84
2023-03-16T18:43:34.826Z,48.20
2023-03-16T18:46:03.818Z,48.40
2023-03-16T18:48:36.858Z,48.70
2023-03-16T18:51:06.314Z,48.51
2023-03-16T18:53:35.397Z,48.02
2023-03-16T18:56:04.491Z,48.05
2023-03-16T18:58:35.687Z,48.05
2023-03-16T19:01:05.092Z,48.23
2023-03-16T19:03:38.663Z,48.62
2023-03-16T19:06:11.939Z,48.90
2023-03-16T19:08:41.278Z,48.96
2023-03-16T19:11:13.204Z,49.37
2023-03-16T19:13:43.710Z,49.66
2023-03-16T19:16:17.316Z,49.47
2023-03-16T19:18:45.234Z,49.69
2023-03-16T19:21:19.923Z,49.94
2023-03-16T19:23:56.451Z,49.84
2023-03-16T19:26:25.537Z,49.61
2023-03-16T19:28:56.003Z,49.69
2023-03-16T19:31:27.893Z,49.79
2023-03-16T19:33:57.578Z,49.99
2023-03-16T19:36:30.302Z,50.16
2023-03-16T19:38:59.846Z,50.68
2023-03-16T19:41:30.963Z,51.16
2023-03-16T19:44:08.373Z,51.09
2023-03-16T19:46:37.152Z,51.33
2023-03-16T19:49:10.012Z,51.32
2023-03-16T19:51:38.810Z,51.74
2023-03-16T19:54:08.173Z,51.85
2023-03-16T19:56:37.303Z,52.27
2023-03-16T19:59:08.143Z,52.49
2023-03-16T20:01:36.906Z,52.71
2023-03-16T20:04:05.786Z,52.97
2023-03-16T20:06:34.539Z,53.44
2023-03-16T20:09:03.312Z,54.33
2023-03-16T20:11:33.923Z,54.96
2023-03-16T20:14:03.561Z,55.49
2023-03-16T20:16:35.810Z,56.34
2023-03-16T20:19:12.311Z,56.97
2023-03-16T20:21:41.271Z,58.28
2023-03-16T20:24:16.266Z,58.34
2023-03-16T20:26:47.381Z,58.47
2023-03-16T20:29:23.639Z,59.69
2023-03-16T20:31:53.894Z,60.00
2023-03-16T20:34:26.644Z,60.05
2023-03-16T20:36:56.787Z,60.82
2023-03-16T20:39:25.613Z,62.29
2023-03-16T20:41:54.795Z,61.59
2023-03-16T20:44:25.562Z,63.53
2023-03-16T20:46:55.805Z,63.57
2023-03-16T20:49:32.804Z,63.45
2023-03-16T20:52:01.581Z,63.97
2023-03-16T20:54:30.309Z,64.09
2023-03-16T20:56:59.927Z,64.61
2023-03-16T20:59:30.128Z,65.07
2023-03-16T21:02:01.639Z,64.96
2023-03-16T21:04:30.422Z,65.15
2023-03-16T21:06:59.376Z,65.12
2023-03-16T21:09:31.116Z,65.49
2023-03-16T21:11:59.963Z,65.56
2023-03-16T21:14:29.209Z,66.42
2023-03-16T21:16:59.780Z,67.65
2023-03-16T21:19:29.156Z,66.98
2023-03-16T21:21:57.821Z,66.61
2023-03-16T21:24:27.181Z,67.41
2023-03-16T21:26:55.927Z,67.07
2023-03-16T21:29:24.701Z,67.34
2023-03-16T21:31:53.639Z,67.23
2023-03-16T21:34:31.334Z,68.13
2023-03-16T21:37:00.422Z,68.55
2023-03-16T21:39:31.157Z,68.33
2023-03-16T21:41:59.850Z,68.49
2023-03-16T21:44:28.582Z,68.52
2023-03-16T21:46:57.332Z,68.72
2023-03-16T21:49:27.542Z,69.36
2023-03-16T21:51:56.632Z,69.35
2023-03-16T21:54:25.461Z,68.99
2023-03-16T21:56:54.198Z,69.54
2023-03-16T21:59:23.911Z,70.01
2023-03-16T22:02:01.685Z,69.73
2023-03-16T22:04:32.414Z,69.87
2023-03-16T22:07:01.193Z,70.07
2023-03-16T22:09:32.842Z,70.17
2023-03-16T22:12:01.644Z,70.16
2023-03-16T22:14:30.332Z,70.90
2023-03-16T22:16:59.436Z,70.69
2023-03-16T22:19:28.386Z,70.55
2023-03-16T22:21:58.762Z,70.91
2023-03-16T22:24:30.315Z,71.25
2023-03-16T22:26:59.469Z,71.36
2023-03-16T22:29:29.866Z,71.57
2023-03-16T22:32:01.187Z,72.22
2023-03-16T22:34:33.203Z,72.62
2023-03-16T22:37:03.860Z,72.32
2023-03-16T22:39:37.658Z,72.33
2023-03-16T22:42:26.284Z,71.97
2023-03-16T22:44:55.318Z,71.76
2023-03-16T22:47:26.191Z,71.69
2023-03-16T22:49:56.072Z,71.36
2023-03-16T22:52:30.380Z,71.45
2023-03-16T22:55:00.025Z,71.29
2023-03-16T22:57:30.384Z,70.90
2023-03-16T23:00:00.082Z,70.62
2023-03-16T23:02:30.579Z,70.43
2023-03-16T23:04:59.386Z,70.16
2023-03-16T23:07:29.542Z,70.16
2023-03-16T23:09:58.294Z,70.25
2023-03-16T23:12:27.246Z,70.38
2023-03-16T23:14:56.258Z,70.23
2023-03-16T23:17:25.000Z,70.10
2023-03-16T23:19:53.772Z,69.78
2023-03-16T23:22:22.500Z,69.82
2023-03-16T23:24:52.633Z,69.67
2023-03-16T23:27:23.987Z,70.42
2023-03-16T23:29:53.168Z,70.60
2023-03-16T23:32:21.949Z,71.23
2023-03-16T23:34:50.416Z,71.24
2023-03-16T23:37:19.167Z,71.50
2023-03-16T23:39:49.222Z,71.87
2023-03-16T23:42:19.391Z,72.23
2023-03-16T23:44:48.048Z,72.33
2023-03-16T23:47:16.799Z,72.65
2023-03-16T23:49:45.483Z,72.71
2023-03-16T23:52:14.603Z,72.34
2023-03-16T23:54:43.817Z,72.18
2023-03-16T23:57:12.689Z,72.08
2023-03-16T23:59:42.773Z,72.22
